Terminal Aerodrome Forecast
Issued by NWS Charleston, WV

Current Version | Previous Version | Graphics & Text | Print | Product List | Glossary On
Versions: 1 2 3 4 5 6 7 8 9 10 11 12 13 14 15 16 17 18 19 20 21 22
554
FTUS41 KRLX 242339
TAFEKN
TAF
KEKN 242339Z 2500/2524 12008KT P6SM OVC035
     FM250400 16004KT P6SM OVC025
     FM250700 00000KT 5SM BR OVC025
     FM250900 00000KT 2SM BR OVC015
     FM251400 VRB03KT P6SM OVC015
     FM251600 30004KT P6SM -SHRA OVC015=

USA.gov is the U.S. government's official web portal to all federal, state and local government web resources and services.